createdAt,value
2023-10-16T00:01:39.885Z,1.23
2023-10-16T00:04:07.694Z,1.00
2023-10-16T00:06:36.116Z,0.95
2023-10-16T00:09:23.850Z,1.23
2023-10-16T00:12:13.116Z,1.38
2023-10-16T00:14:40.035Z,1.02
2023-10-16T00:17:09.443Z,1.25
2023-10-16T00:19:40.337Z,1.17
2023-10-16T00:22:17.145Z,1.20
2023-10-16T00:24:48.061Z,1.15
2023-10-16T00:27:18.795Z,1.42
2023-10-16T00:29:46.559Z,1.45
2023-10-16T00:32:13.724Z,1.40
2023-10-16T00:34:40.693Z,1.55
2023-10-16T00:37:08.494Z,1.33
2023-10-16T00:43:38.970Z,0.98
2023-10-16T00:46:16.220Z,1.17
2023-10-16T00:48:43.705Z,1.40
2023-10-16T00:51:11.210Z,1.67
2023-10-16T00:53:39.452Z,1.42
2023-10-16T00:56:15.569Z,1.00
2023-10-16T00:58:44.064Z,1.33
2023-10-16T01:01:13.699Z,1.13
2023-10-16T01:03:42.514Z,1.83
2023-10-16T01:06:17.897Z,1.10
2023-10-16T01:08:50.842Z,1.40
2023-10-16T01:11:20.312Z,1.02
2023-10-16T01:17:32.236Z,1.38
2023-10-16T01:19:59.460Z,1.20
2023-10-16T01:22:31.156Z,0.90
2023-10-16T01:25:01.337Z,0.85
2023-10-16T01:27:31.169Z,1.17
2023-10-16T01:30:01.502Z,1.10
2023-10-16T01:32:29.460Z,1.13
2023-10-16T01:34:57.316Z,1.10
2023-10-16T01:37:27.165Z,1.48
2023-10-16T01:39:56.991Z,1.00
2023-10-16T01:42:25.560Z,0.98
2023-10-16T01:44:52.848Z,1.30
2023-10-16T01:47:20.899Z,1.27
2023-10-16T01:49:51.374Z,1.25
2023-10-16T01:52:18.681Z,0.95
2023-10-16T01:54:47.982Z,1.58
2023-10-16T01:57:15.653Z,1.02
2023-10-16T01:59:45.042Z,1.35
2023-10-16T02:02:14.196Z,1.27
2023-10-16T02:04:42.514Z,1.13
2023-10-16T02:07:10.043Z,1.20
2023-10-16T02:09:40.575Z,1.02
2023-10-16T02:12:16.796Z,1.30
2023-10-16T02:14:47.336Z,0.93
2023-10-16T02:17:22.969Z,1.38
2023-10-16T02:19:52.047Z,0.88
2023-10-16T02:22:19.487Z,1.25
2023-10-16T02:24:50.383Z,1.05
2023-10-16T02:27:20.251Z,1.13
2023-10-16T02:29:48.526Z,1.35
2023-10-16T02:32:16.417Z,1.40
2023-10-16T02:34:43.383Z,1.25
2023-10-16T02:37:12.504Z,1.23
2023-10-16T02:39:39.858Z,1.05
2023-10-16T02:42:16.429Z,1.50
2023-10-16T02:44:43.982Z,1.30
2023-10-16T02:47:14.782Z,1.17
2023-10-16T02:49:51.820Z,1.60
2023-10-16T02:52:20.698Z,1.40
2023-10-16T02:54:48.242Z,1.63
2023-10-16T02:57:18.413Z,1.00
2023-10-16T02:59:46.400Z,1.40
2023-10-16T03:02:23.619Z,1.20
2023-10-16T03:04:54.266Z,1.42
2023-10-16T03:07:26.342Z,1.40
2023-10-16T03:09:54.248Z,1.52
2023-10-16T03:12:22.482Z,1.48
2023-10-16T03:14:58.807Z,1.33
2023-10-16T03:17:32.055Z,1.15
2023-10-16T03:19:59.077Z,0.98
2023-10-16T03:22:26.496Z,1.00
2023-10-16T03:24:57.377Z,1.25
2023-10-16T03:27:30.488Z,1.25
2023-10-16T03:29:58.614Z,1.30
2023-10-16T03:32:26.117Z,1.10
2023-10-16T03:34:53.324Z,1.25
2023-10-16T03:37:21.062Z,1.17
2023-10-16T03:39:48.077Z,1.23
2023-10-16T03:42:19.130Z,1.20
2023-10-16T03:44:46.696Z,1.23
2023-10-16T03:47:15.671Z,1.23
2023-10-16T03:49:42.829Z,1.05
2023-10-16T03:52:10.167Z,1.10
2023-10-16T03:54:37.233Z,1.42
2023-10-16T03:57:11.561Z,1.20
2023-10-16T03:59:44.021Z,1.20
2023-10-16T04:02:18.497Z,1.40
2023-10-16T04:04:45.991Z,1.20
2023-10-16T04:07:15.743Z,1.30
2023-10-16T04:09:51.289Z,1.10
2023-10-16T04:12:21.880Z,1.30
2023-10-16T04:14:57.101Z,1.40
2023-10-16T04:17:28.390Z,1.35
2023-10-16T04:20:01.120Z,1.50
2023-10-16T04:22:41.893Z,1.50
2023-10-16T04:25:19.573Z,1.35
2023-10-16T04:27:46.842Z,1.90
2023-10-16T04:30:22.880Z,1.77
2023-10-16T04:33:08.588Z,2.03
2023-10-16T04:35:41.781Z,2.05
2023-10-16T04:38:28.781Z,1.73
2023-10-16T04:44:10.357Z,3.55
2023-10-16T04:46:55.779Z,2.50
2023-10-16T04:49:30.272Z,2.47
2023-10-16T04:52:08.691Z,3.47
2023-10-16T04:54:59.807Z,3.17
2023-10-16T04:57:27.007Z,1.85
2023-10-16T05:00:01.475Z,1.90
2023-10-16T05:02:35.496Z,1.75
2023-10-16T05:05:21.706Z,2.00
2023-10-16T05:07:55.081Z,1.90
2023-10-16T05:10:42.787Z,1.92
2023-10-16T05:13:25.942Z,2.17
2023-10-16T05:16:13.490Z,2.67
2023-10-16T05:19:03.087Z,2.10
2023-10-16T05:21:52.018Z,2.17
2023-10-16T05:24:37.789Z,1.90
2023-10-16T05:27:27.505Z,2.30
2023-10-16T05:30:13.468Z,2.20
2023-10-16T05:32:59.344Z,2.30
2023-10-16T05:35:44.860Z,2.63
2023-10-16T05:38:30.516Z,1.40
2023-10-16T05:41:28.975Z,2.60
2023-10-16T05:44:15.214Z,1.95
2023-10-16T05:47:01.679Z,2.17
2023-10-16T05:49:47.197Z,1.98
2023-10-16T05:52:33.345Z,2.15
2023-10-16T05:55:18.792Z,2.17
2023-10-16T05:58:07.523Z,1.92
2023-10-16T06:00:54.093Z,2.08
2023-10-16T06:03:41.764Z,2.47
2023-10-16T06:06:27.557Z,4.30
2023-10-16T06:09:13.291Z,2.90
2023-10-16T06:11:58.917Z,2.65
2023-10-16T06:14:27.481Z,3.22
2023-10-16T06:16:57.098Z,3.65
2023-10-16T06:19:24.725Z,3.40
2023-10-16T06:21:53.768Z,3.22
2023-10-16T06:24:42.175Z,3.42
2023-10-16T06:27:13.316Z,3.28
2023-10-16T06:30:07.821Z,3.85
2023-10-16T06:32:37.825Z,3.67
2023-10-16T06:35:08.958Z,3.88
2023-10-16T06:37:39.789Z,3.90
2023-10-16T06:40:17.241Z,3.28
2023-10-16T06:42:49.130Z,3.45
2023-10-16T06:45:41.795Z,3.72
2023-10-16T06:48:16.495Z,3.58
2023-10-16T06:50:55.199Z,3.50
2023-10-16T06:53:25.539Z,3.53
2023-10-16T06:55:52.554Z,3.88
2023-10-16T06:58:23.149Z,4.00
2023-10-16T07:00:54.679Z,3.65
2023-10-16T07:03:26.489Z,4.10
2023-10-16T07:05:53.566Z,5.05
2023-10-16T07:08:21.827Z,5.03
2023-10-16T07:10:55.220Z,4.75
2023-10-16T07:13:30.949Z,5.63
2023-10-16T07:16:04.422Z,4.40
2023-10-16T07:18:35.043Z,4.53
2023-10-16T07:21:03.691Z,4.95
2023-10-16T07:23:35.824Z,4.57
2023-10-16T07:26:08.564Z,4.93
2023-10-16T07:28:36.111Z,4.68
2023-10-16T07:31:06.993Z,4.57
2023-10-16T07:33:34.296Z,5.07
2023-10-16T07:36:01.396Z,5.13
2023-10-16T07:38:29.730Z,4.50
2023-10-16T07:41:01.746Z,4.25
2023-10-16T07:43:30.950Z,4.65
2023-10-16T07:46:12.468Z,5.13
2023-10-16T07:48:45.537Z,5.10
2023-10-16T07:51:13.607Z,5.35
2023-10-16T07:53:43.118Z,4.90
2023-10-16T07:56:22.568Z,5.63
2023-10-16T07:58:50.291Z,5.60
2023-10-16T08:01:17.825Z,5.95
2023-10-16T08:03:50.287Z,6.43
2023-10-16T08:06:25.739Z,6.25
2023-10-16T08:09:13.797Z,6.93
2023-10-16T08:11:47.600Z,7.45
2023-10-16T08:14:14.822Z,12.10
2023-10-16T08:16:42.172Z,7.68
2023-10-16T08:19:27.825Z,8.45
2023-10-16T08:21:57.674Z,9.25
2023-10-16T08:24:26.055Z,11.02
2023-10-16T08:26:54.400Z,10.02
2023-10-16T08:29:27.292Z,10.25
2023-10-16T08:32:15.099Z,9.10
2023-10-16T08:34:42.176Z,9.35
2023-10-16T08:37:13.780Z,9.30
2023-10-16T08:39:49.535Z,9.20
2023-10-16T08:42:20.278Z,9.07
2023-10-16T08:45:08.032Z,8.98
2023-10-16T08:47:35.715Z,8.13
2023-10-16T08:50:07.964Z,8.50
2023-10-16T08:52:36.426Z,8.80
2023-10-16T08:55:16.884Z,8.75
2023-10-16T08:57:49.756Z,8.93
2023-10-16T09:00:22.414Z,8.23
2023-10-16T09:02:53.174Z,8.63
2023-10-16T09:05:22.774Z,8.13
2023-10-16T09:07:50.031Z,7.82
2023-10-16T09:10:17.055Z,7.90
2023-10-16T09:12:54.420Z,7.57
2023-10-16T09:15:26.143Z,6.95
2023-10-16T09:17:56.037Z,7.00
2023-10-16T09:20:34.257Z,7.25
2023-10-16T09:23:03.734Z,7.90
2023-10-16T09:25:38.075Z,7.90
2023-10-16T09:28:10.525Z,7.72
2023-10-16T09:30:38.140Z,7.60
2023-10-16T09:33:07.846Z,7.72
2023-10-16T09:35:35.627Z,7.07
2023-10-16T09:38:19.924Z,7.95
2023-10-16T09:41:22.172Z,7.20
2023-10-16T09:44:08.225Z,7.18
2023-10-16T09:46:48.343Z,7.40
2023-10-16T09:49:22.520Z,7.60
2023-10-16T09:54:31.122Z,7.07
2023-10-16T09:57:00.469Z,6.32
2023-10-16T09:59:35.101Z,6.93
2023-10-16T10:02:18.345Z,7.38
2023-10-16T10:04:55.222Z,7.50
2023-10-16T10:07:36.406Z,7.25
2023-10-16T10:10:27.415Z,7.07
2023-10-16T10:12:58.763Z,6.88
2023-10-16T10:15:31.233Z,6.25
2023-10-16T10:18:04.735Z,6.80
2023-10-16T10:20:40.589Z,6.78
2023-10-16T10:23:09.681Z,5.85
2023-10-16T10:25:39.264Z,6.57
2023-10-16T10:28:18.680Z,6.18
2023-10-16T10:30:46.916Z,4.90
2023-10-16T10:33:34.993Z,4.72
2023-10-16T10:36:30.065Z,4.75
2023-10-16T10:39:22.858Z,5.20
2023-10-16T10:41:55.391Z,5.10
2023-10-16T10:44:31.496Z,4.35
2023-10-16T10:47:02.442Z,3.58
2023-10-16T10:49:34.937Z,3.72
2023-10-16T10:52:02.855Z,4.60
2023-10-16T10:54:30.225Z,4.50
2023-10-16T10:57:02.706Z,4.20
2023-10-16T10:59:40.975Z,4.35
2023-10-16T11:02:17.809Z,3.67
2023-10-16T11:04:55.248Z,4.72
2023-10-16T11:08:09.671Z,3.55
2023-10-16T11:10:45.734Z,3.42
2023-10-16T11:13:14.717Z,2.90
2023-10-16T11:15:56.781Z,3.20
2023-10-16T11:18:30.260Z,3.08
2023-10-16T11:21:06.414Z,2.92
2023-10-16T11:26:01.957Z,2.75
2023-10-16T11:28:30.046Z,2.97
2023-10-16T11:30:58.780Z,2.22
2023-10-16T11:33:46.867Z,2.30
2023-10-16T11:36:17.706Z,2.20
2023-10-16T11:38:45.328Z,1.90
2023-10-16T11:41:24.306Z,2.00
2023-10-16T11:43:55.896Z,1.95
2023-10-16T11:46:40.329Z,2.25
2023-10-16T11:49:17.605Z,1.70
2023-10-16T11:51:52.700Z,1.73
2023-10-16T11:54:27.809Z,1.50
2023-10-16T11:56:59.720Z,1.50
2023-10-16T11:59:28.334Z,2.13
2023-10-16T12:02:04.302Z,1.90
2023-10-16T12:04:33.337Z,2.10
2023-10-16T12:07:04.260Z,2.35
2023-10-16T12:09:39.067Z,2.67
2023-10-16T12:12:07.902Z,2.13
2023-10-16T12:14:39.548Z,1.95
2023-10-16T12:17:13.562Z,2.70
2023-10-16T12:19:40.793Z,2.30
2023-10-16T12:22:10.288Z,2.67
2023-10-16T12:24:37.754Z,2.30
2023-10-16T12:27:05.479Z,1.77
2023-10-16T12:29:32.312Z,1.40
2023-10-16T12:32:03.802Z,2.17
2023-10-16T12:34:34.224Z,1.80
2023-10-16T12:37:02.357Z,1.70
2023-10-16T12:39:30.116Z,2.03
2023-10-16T12:41:59.294Z,2.30
2023-10-16T12:44:26.915Z,2.40
2023-10-16T12:46:55.011Z,2.53
2023-10-16T12:49:23.056Z,2.50
2023-10-16T12:51:51.012Z,2.40
2023-10-16T12:54:21.361Z,2.40
2023-10-16T12:56:49.552Z,2.20
2023-10-16T12:59:16.532Z,2.78
2023-10-16T13:01:43.635Z,2.50
2023-10-16T13:04:17.592Z,2.42
2023-10-16T13:06:45.430Z,2.08
2023-10-16T13:09:19.673Z,2.40
2023-10-16T13:11:47.692Z,2.50
2023-10-16T13:14:14.647Z,2.45
2023-10-16T13:16:42.748Z,2.92
2023-10-16T13:19:12.420Z,2.58
2023-10-16T13:21:39.775Z,2.22
2023-10-16T13:24:12.485Z,2.25
2023-10-16T13:26:40.824Z,2.40
2023-10-16T13:29:14.310Z,2.50
2023-10-16T13:31:42.868Z,2.40
2023-10-16T13:34:15.032Z,2.60
2023-10-16T13:36:44.989Z,2.30
2023-10-16T13:39:12.366Z,2.20
2023-10-16T13:41:51.782Z,2.25
2023-10-16T13:44:26.319Z,2.45
2023-10-16T13:46:55.183Z,2.40
2023-10-16T13:49:25.776Z,2.10
2023-10-16T13:51:54.209Z,2.38
2023-10-16T13:54:21.827Z,2.20
2023-10-16T13:56:48.862Z,2.35
2023-10-16T13:59:16.610Z,2.20
2023-10-16T14:01:47.635Z,2.05
2023-10-16T14:04:16.112Z,2.10
2023-10-16T14:06:45.584Z,1.70
2023-10-16T14:09:13.243Z,2.10
2023-10-16T14:11:48.704Z,2.22
2023-10-16T14:14:21.815Z,2.42
2023-10-16T14:17:03.610Z,2.40
2023-10-16T14:19:32.038Z,2.20
2023-10-16T14:22:00.022Z,3.38
2023-10-16T14:24:28.195Z,1.85
2023-10-16T14:27:00.307Z,1.70
2023-10-16T14:29:29.112Z,1.60
2023-10-16T14:31:58.080Z,1.73
2023-10-16T14:34:27.525Z,1.90
2023-10-16T14:36:56.972Z,1.90
2023-10-16T14:39:30.702Z,1.80
2023-10-16T14:42:02.627Z,1.40
2023-10-16T14:44:29.612Z,1.40
2023-10-16T14:46:58.142Z,1.50
2023-10-16T14:49:29.311Z,1.30
2023-10-16T14:51:57.437Z,1.48
2023-10-16T14:54:24.425Z,1.45
2023-10-16T14:56:53.494Z,1.60
2023-10-16T14:59:33.916Z,1.30
2023-10-16T15:02:02.408Z,1.52
2023-10-16T15:04:30.207Z,1.27
2023-10-16T15:07:05.219Z,1.15
2023-10-16T15:09:33.294Z,1.30
2023-10-16T15:12:01.063Z,1.30
2023-10-16T15:14:30.192Z,1.40
2023-10-16T15:16:57.802Z,1.33
2023-10-16T15:19:28.392Z,1.30
2023-10-16T15:21:56.055Z,1.30
2023-10-16T15:24:23.471Z,1.27
2023-10-16T15:26:50.459Z,1.48
2023-10-16T15:29:18.049Z,1.50
2023-10-16T15:31:47.372Z,1.00
2023-10-16T15:34:14.745Z,1.60
2023-10-16T15:36:41.832Z,1.40
2023-10-16T15:39:16.600Z,1.38
2023-10-16T15:41:46.415Z,1.02
2023-10-16T15:44:14.084Z,1.42
2023-10-16T15:46:42.052Z,1.10
2023-10-16T15:49:09.642Z,1.17
2023-10-16T15:51:38.586Z,1.10
2023-10-16T15:54:06.157Z,0.82
2023-10-16T15:56:33.583Z,1.20
2023-10-16T15:59:01.480Z,0.70
2023-10-16T16:01:28.621Z,1.08
2023-10-16T16:04:01.311Z,1.10
2023-10-16T16:06:32.587Z,0.98
2023-10-16T16:09:01.871Z,1.10
2023-10-16T16:11:29.838Z,1.27
2023-10-16T16:13:58.246Z,1.88
2023-10-16T16:16:26.771Z,2.13
2023-10-16T16:18:54.417Z,1.23
2023-10-16T16:21:21.930Z,1.20
2023-10-16T16:23:50.505Z,1.70
2023-10-16T16:26:18.332Z,2.30
2023-10-16T16:28:48.438Z,2.05
2023-10-16T16:31:17.445Z,1.25
2023-10-16T16:33:44.970Z,2.92
2023-10-16T16:36:15.065Z,1.80
2023-10-16T16:38:42.403Z,1.85
2023-10-16T16:41:13.013Z,2.28
2023-10-16T16:43:40.252Z,2.22
2023-10-16T16:46:08.201Z,2.03
2023-10-16T16:48:35.601Z,1.60
2023-10-16T16:51:04.151Z,1.42
2023-10-16T16:53:31.406Z,2.92
2023-10-16T16:55:58.793Z,3.08
2023-10-16T16:58:26.119Z,3.08
2023-10-16T17:00:53.880Z,2.80
2023-10-16T17:03:21.112Z,1.58
2023-10-16T17:05:48.078Z,1.38
2023-10-16T17:08:15.452Z,1.73
2023-10-16T17:10:45.881Z,1.52
2023-10-16T17:13:14.074Z,2.20
2023-10-16T17:15:41.245Z,1.95
2023-10-16T17:18:08.744Z,1.60
2023-10-16T17:20:36.604Z,1.73
2023-10-16T17:23:06.366Z,2.42
2023-10-16T17:25:35.460Z,1.70
2023-10-16T17:28:02.730Z,1.88
2023-10-16T17:30:31.252Z,2.58
2023-10-16T17:32:58.567Z,2.70
2023-10-16T17:35:29.869Z,1.52
2023-10-16T17:37:56.707Z,1.77
2023-10-16T17:40:23.892Z,1.58
2023-10-16T17:42:51.348Z,2.40
2023-10-16T17:45:18.331Z,1.50
2023-10-16T17:47:46.102Z,1.60
2023-10-16T17:50:13.631Z,1.38
2023-10-16T17:52:41.002Z,1.50
2023-10-16T17:55:08.668Z,2.13
2023-10-16T17:57:36.041Z,1.40
2023-10-16T18:00:09.350Z,1.90
2023-10-16T18:02:38.553Z,1.30
2023-10-16T18:05:06.435Z,1.45
2023-10-16T18:07:33.463Z,2.05
2023-10-16T18:10:00.645Z,1.50
2023-10-16T18:12:27.452Z,1.33
2023-10-16T18:14:54.960Z,1.63
2023-10-16T18:17:22.323Z,1.58
2023-10-16T18:19:49.794Z,2.22
2023-10-16T18:22:16.804Z,1.48
2023-10-16T18:24:45.465Z,1.25
2023-10-16T18:27:18.624Z,1.80
2023-10-16T18:29:46.433Z,1.90
2023-10-16T18:35:01.324Z,2.70
2023-10-16T18:37:28.228Z,1.70
2023-10-16T18:39:55.551Z,1.70
2023-10-16T18:42:22.768Z,1.48
2023-10-16T18:44:51.308Z,1.60
2023-10-16T18:47:19.022Z,2.22
2023-10-16T18:49:46.219Z,1.20
2023-10-16T18:52:13.357Z,1.65
2023-10-16T18:54:40.716Z,1.73
2023-10-16T18:57:10.693Z,2.40
2023-10-16T18:59:38.764Z,1.55
2023-10-16T19:02:06.585Z,1.60
2023-10-16T19:04:34.404Z,1.55
2023-10-16T19:07:01.773Z,1.98
2023-10-16T19:09:28.889Z,1.95
2023-10-16T19:11:56.613Z,2.70
2023-10-16T19:14:26.012Z,1.98
2023-10-16T19:16:55.455Z,2.58
2023-10-16T19:19:23.079Z,2.30
2023-10-16T19:21:50.074Z,2.35
2023-10-16T19:24:19.424Z,2.13
2023-10-16T19:26:46.954Z,2.30
2023-10-16T19:29:14.259Z,1.90
2023-10-16T19:31:42.967Z,2.25
2023-10-16T19:34:10.598Z,2.00
2023-10-16T19:36:40.643Z,2.78
2023-10-16T19:39:07.674Z,2.30
2023-10-16T19:41:36.665Z,2.55
2023-10-16T19:44:05.025Z,2.15
2023-10-16T19:46:33.593Z,2.00
2023-10-16T19:49:01.521Z,2.47
2023-10-16T19:51:29.076Z,2.83
2023-10-16T19:53:56.882Z,2.50
2023-10-16T19:56:24.580Z,2.30
2023-10-16T19:58:54.702Z,2.85
2023-10-16T20:01:23.952Z,3.05
2023-10-16T20:03:53.615Z,2.40
2023-10-16T20:06:21.243Z,4.30
2023-10-16T20:08:49.167Z,2.28
2023-10-16T20:11:19.058Z,2.25
2023-10-16T20:13:45.854Z,1.92
2023-10-16T20:16:13.787Z,3.80
2023-10-16T20:18:42.381Z,2.00
2023-10-16T20:21:13.735Z,2.75
2023-10-16T20:23:41.151Z,4.45
2023-10-16T20:26:18.640Z,2.15
2023-10-16T20:28:51.316Z,3.33
2023-10-16T20:31:20.111Z,2.80
2023-10-16T20:33:49.798Z,2.33
2023-10-16T20:36:18.534Z,2.60
2023-10-16T20:38:46.092Z,2.30
2023-10-16T20:41:14.229Z,2.67
2023-10-16T20:43:41.584Z,2.20
2023-10-16T20:46:08.705Z,2.63
2023-10-16T20:48:37.084Z,2.28
2023-10-16T20:51:04.825Z,3.45
2023-10-16T20:53:32.496Z,2.85
2023-10-16T20:55:59.461Z,2.40
2023-10-16T20:58:26.541Z,2.90
2023-10-16T21:00:56.874Z,2.72
2023-10-16T21:03:25.411Z,3.65
2023-10-16T21:05:53.364Z,4.05
2023-10-16T21:08:20.505Z,3.05
2023-10-16T21:10:47.978Z,3.22
2023-10-16T21:13:14.979Z,2.90
2023-10-16T21:15:45.694Z,3.47
2023-10-16T21:18:12.776Z,2.90
2023-10-16T21:20:40.309Z,3.70
2023-10-16T21:23:07.363Z,2.95
2023-10-16T21:25:34.566Z,2.70
2023-10-16T21:28:04.024Z,3.22
2023-10-16T21:30:31.336Z,2.42
2023-10-16T21:32:58.618Z,2.67
2023-10-16T21:35:26.546Z,2.90
2023-10-16T21:37:54.598Z,2.90
2023-10-16T21:40:24.184Z,2.78
2023-10-16T21:42:52.485Z,3.10
2023-10-16T21:45:20.661Z,3.38
2023-10-16T21:47:48.290Z,3.08
2023-10-16T21:50:15.702Z,2.42
2023-10-16T21:52:42.659Z,4.45
2023-10-16T21:55:11.738Z,3.50
2023-10-16T21:57:38.858Z,2.80
2023-10-16T22:00:30.890Z,3.20
2023-10-16T22:02:58.014Z,3.17
2023-10-16T22:05:25.122Z,2.85
2023-10-16T22:07:52.236Z,2.70
2023-10-16T22:10:21.188Z,3.30
2023-10-16T22:12:50.825Z,2.80
2023-10-16T22:15:20.531Z,2.45
2023-10-16T22:17:48.015Z,2.78
2023-10-16T22:20:15.444Z,2.33
2023-10-16T22:22:42.642Z,2.53
2023-10-16T22:25:12.577Z,2.65
2023-10-16T22:27:39.537Z,2.33
2023-10-16T22:30:07.218Z,2.67
2023-10-16T22:32:37.420Z,3.65
2023-10-16T22:35:05.904Z,2.97
2023-10-16T22:37:34.858Z,2.60
2023-10-16T22:40:04.544Z,2.17
2023-10-16T22:42:31.636Z,2.38
2023-10-16T22:44:59.285Z,2.38
2023-10-16T22:47:26.571Z,2.20
2023-10-16T22:49:55.003Z,2.53
2023-10-16T22:52:22.291Z,2.85
2023-10-16T22:54:49.212Z,2.80
2023-10-16T22:57:16.978Z,3.03
2023-10-16T22:59:43.898Z,2.58
2023-10-16T23:02:12.815Z,2.30
2023-10-16T23:04:42.148Z,2.72
2023-10-16T23:07:09.826Z,2.28
2023-10-16T23:09:37.317Z,2.47
2023-10-16T23:12:09.427Z,2.50
2023-10-16T23:14:40.116Z,2.25
2023-10-16T23:22:57.640Z,2.60
2023-10-16T23:25:25.632Z,2.53
2023-10-16T23:27:52.692Z,2.40
2023-10-16T23:30:23.003Z,2.63
2023-10-16T23:32:51.615Z,2.67
2023-10-16T23:35:22.748Z,2.55
2023-10-16T23:37:50.314Z,2.00
2023-10-16T23:40:35.396Z,2.45
